1984 BILL (1984313N14154)


On this page: IBTrACS data - Map and Plots - Positions - Intensities - Original source data

Summary

Start Nov 8
End Nov 23
Basin WP
LMI 130 kt
Sources jtwc_wp
tokyo
cma
hko
td9636
In WMO? Yes
Previous storm 1984 KLAUS (NA)
Previous in basin 1984 AGNES (WP)
Concurrent storms 1984 AGNES (WP)
1984 SIMON (EP)
1984 KLAUS (NA)
1984 BILL (WP)
1984 MISSING (NI)
1985 HSK0185 (SI)
1984 CLARA (WP)
1985 ANETY (SI)
Next in basin 1984 CLARA (WP)
Next storm 1984 MISSING (NI)

top of page IBTrACS Data: File Access

top of page HURSAT Data: File Access

Image of storm

top of page Plots:

Map of storm track will not appear if FTP is down
Time series of cyclone Maximum Sustained Wind will not appear if FTP is down
Time series of cyclone Minimum Central Pressure will not appear if FTP is down

top of page Track Data:Position

jtwc_wp tokyo cma hko td9636
Date Lat Lon Lat Lon Lat Lon Lat Lon Lat Lon
1984-11-08 00:00:00 14.3 153.9 14.0 154.0 14.3 153.9
1984-11-08 06:00:00 14.4 153.7 14.5 153.5 14.6 153.7 14.2 153.6
1984-11-08 12:00:00 14.1 153.5 14.2 153.5 14.3 153.6 14.1 153.5
1984-11-08 18:00:00 13.9 153.5 14.0 153.5 14.2 153.5 14.0 153.6
1984-11-09 00:00:00 13.9 153.7 13.8 153.7 13.8 153.7 13.8 153.7 13.9 153.7
1984-11-09 06:00:00 13.9 153.8 14.2 153.9 14.3 153.9 13.9 153.8 13.9 153.8
1984-11-09 12:00:00 14.0 153.9 14.2 153.8 14.3 153.9 14.0 153.9 14.0 153.9
1984-11-09 18:00:00 14.2 153.9 14.3 153.9 14.3 153.9 14.1 153.9 14.1 153.9
1984-11-10 00:00:00 14.3 153.8 14.3 153.8 14.3 153.9 14.2 153.8 14.3 153.8
1984-11-10 06:00:00 14.4 153.7 14.3 153.7 14.3 153.9 14.3 153.7 14.4 153.7
1984-11-10 12:00:00 14.5 153.5 14.3 153.5 14.4 153.4 14.4 153.4 14.5 153.5
1984-11-10 18:00:00 14.5 153.2 14.3 153.3 14.5 153.2 14.4 153.2 14.5 153.2
1984-11-11 00:00:00 14.5 152.8 14.7 152.9 14.6 152.9 14.4 152.9 14.5 152.8
1984-11-11 06:00:00 14.3 152.1 14.6 152.2 14.5 152.2 14.3 152.2 14.4 152.2
1984-11-11 12:00:00 14.1 151.3 14.1 151.4 14.2 151.4 14.0 151.3 14.1 151.3
1984-11-11 18:00:00 13.7 150.3 13.7 150.4 13.8 150.4 13.7 150.3 13.8 150.3
1984-11-12 00:00:00 13.4 149.0 13.4 149.0 13.5 149.1 13.3 149.1 13.4 149.0
1984-11-12 06:00:00 13.3 147.6 13.3 147.5 13.2 147.6 13.1 147.7 13.1 147.7
1984-11-12 12:00:00 12.8 146.1 12.8 146.1 12.8 146.1 12.9 146.0 12.8 146.1
1984-11-12 18:00:00 13.1 144.2 13.0 144.1 13.0 144.1 12.8 144.1 12.7 144.3
1984-11-13 00:00:00 12.7 142.3 12.8 142.1 12.9 142.1 12.7 142.2 12.7 142.3
1984-11-13 06:00:00 12.6 140.4 12.8 140.3 12.8 140.2 12.7 140.3 12.6 140.3
1984-11-13 12:00:00 12.5 138.4 12.6 138.5 12.6 138.5 12.6 138.5 12.5 138.4
1984-11-13 18:00:00 12.6 136.9 12.7 136.8 12.7 136.9 12.6 136.8 12.6 136.8
1984-11-14 00:00:00 12.8 135.3 12.8 135.3 12.8 135.3 12.8 135.3 12.8 135.3
jtwc_wp tokyo cma hko td9636
1984-11-14 06:00:00 13.3 133.9 13.1 133.8 13.2 133.9 13.1 133.9 13.1 133.8
1984-11-14 12:00:00 13.5 132.4 13.7 132.3 13.7 132.3 13.6 132.4 13.5 132.4
1984-11-14 18:00:00 14.2 131.0 14.3 130.9 14.3 130.9 14.3 131.0 14.2 131.1
1984-11-15 00:00:00 15.0 129.9 15.0 129.8 15.0 129.8 15.0 130.0 15.0 129.9
1984-11-15 06:00:00 15.9 128.9 15.8 128.8 15.9 128.8 15.8 128.8 15.8 128.8
1984-11-15 12:00:00 16.5 127.8 16.6 127.7 16.6 127.9 16.5 127.9 16.5 127.8
1984-11-15 18:00:00 16.9 127.2 16.9 127.2 17.0 127.3 17.0 127.2 17.0 127.1
1984-11-16 00:00:00 17.3 126.5 17.2 126.5 17.3 126.6 17.3 126.5 17.3 126.5
1984-11-16 06:00:00 17.5 125.7 17.4 125.8 17.5 125.8 17.5 125.8 17.5 125.6
1984-11-16 12:00:00 17.7 124.8 17.5 124.9 17.5 124.9 17.5 125.1 17.7 124.8
1984-11-16 18:00:00 17.9 124.2 17.7 124.2 17.8 124.2 17.7 124.3 17.8 124.2
1984-11-17 00:00:00 18.1 123.6 18.1 123.5 18.2 123.6 18.1 123.7 18.1 123.6
1984-11-17 06:00:00 18.7 123.0 18.8 123.0 18.8 123.0 18.8 123.0 18.7 123.0
1984-11-17 12:00:00 19.4 122.5 19.3 122.8 19.4 122.7 19.4 122.8 19.4 122.5
1984-11-17 18:00:00 19.9 122.4 19.9 122.7 19.9 122.6 19.8 122.6 19.9 122.4
1984-11-18 00:00:00 20.2 122.6 20.2 122.7 20.2 122.6 20.3 122.7 20.2 122.6
1984-11-18 06:00:00 20.3 122.9 20.3 122.9 20.4 123.0 20.6 122.9 20.3 122.9
1984-11-18 12:00:00 20.2 123.3 20.4 123.3 20.3 123.5 20.6 123.3 20.2 123.3
1984-11-18 18:00:00 20.0 123.7 20.2 123.4 19.9 123.8 20.3 123.7 20.0 123.6
1984-11-19 00:00:00 19.4 124.1 19.4 123.7 19.5 123.9 19.3 123.7 19.4 124.1
1984-11-19 06:00:00 18.2 124.8 18.0 124.5 18.3 124.6 18.0 124.3 18.1 124.9
1984-11-19 12:00:00 16.8 125.8 17.0 125.5 16.9 125.6 16.8 125.6 16.8 125.8
1984-11-19 18:00:00 16.1 126.2 16.3 126.4 16.8 126.3 16.3 126.4 16.0 126.5
1984-11-20 00:00:00 15.6 127.0 15.6 127.2 16.3 127.3 15.7 127.3 15.6 127.0
jtwc_wp tokyo cma hko td9636
1984-11-20 06:00:00 15.3 127.4 15.1 127.6 16.0 127.6 15.4 127.9 15.3 127.5
1984-11-20 12:00:00 15.1 128.0 15.0 128.0 15.4 128.1 15.0 128.5 15.1 128.0
1984-11-20 18:00:00 14.7 128.5 15.0 128.6 15.0 128.7 14.7 129.0 14.7 128.7
1984-11-21 00:00:00 14.4 129.1 14.5 129.1 14.5 129.0 14.3 129.1 14.4 129.1
1984-11-21 06:00:00 15.2 129.2 14.3 128.7 14.0 129.1 14.0 128.8 14.9 128.9
1984-11-21 12:00:00 15.1 128.4 14.2 128.4 13.5 129.5 14.0 128.1 15.1 128.4
1984-11-21 18:00:00 14.1 128.0 14.2 128.0 13.0 128.8 13.9 127.5 14.3 127.8
1984-11-22 00:00:00 12.9 127.3 14.2 127.5 12.5 128.0 13.6 127.0 12.9 127.3
1984-11-22 06:00:00 14.0 127.0 11.9 127.1
1984-11-22 12:00:00 13.5 127.0 11.2 126.5
1984-11-22 18:00:00 13.0 126.5
1984-11-23 00:00:00 12.5 126.0
1984-11-23 06:00:00 12.0 125.5

top of pageTrack Data:Intensity

jtwc_wp tokyo cma hko td9636
Date Wind Pres Wind Pres Wind Pres Wind Pres Wind Pres
1984-11-08 00:00:00 25. 1004. 25.
1984-11-08 06:00:00 25. 1004. 19. 1004. 25.
1984-11-08 12:00:00 30. 1004. 23. 1002. 30.
1984-11-08 18:00:00 35. 1002. 23. 1000. 30.
1984-11-09 00:00:00 35. 40. 1000. 29. 1000. 30. 999. 35.
1984-11-09 06:00:00 40. 40. 998. 29. 998. 35. 998. 35.
1984-11-09 12:00:00 40. 40. 996. 39. 996. 35. 996. 40.
1984-11-09 18:00:00 45. 40. 994. 39. 996. 40. 992. 40.
1984-11-10 00:00:00 50. 50. 990. 49. 990. 40. 990. 50.
1984-11-10 06:00:00 50. 50. 990. 49. 990. 45. 993. 50.
1984-11-10 12:00:00 55. 50. 990. 49. 990. 50. 994. 55.
1984-11-10 18:00:00 60. 50. 990. 49. 990. 50. 995. 55.
1984-11-11 00:00:00 65. 55. 985. 49. 990. 55. 986. 65.
1984-11-11 06:00:00 65. 60. 980. 49. 990. 55. 991. 65.
1984-11-11 12:00:00 70. 50. 990. 49. 990. 55. 992. 70.
1984-11-11 18:00:00 70. 50. 990. 49. 990. 55. 992. 70.
1984-11-12 00:00:00 70. 50. 990. 49. 985. 55. 990. 70.
1984-11-12 06:00:00 75. 55. 985. 58. 985. 60. 985. 70.
1984-11-12 12:00:00 80. 60. 980. 58. 980. 65. 980. 80.
1984-11-12 18:00:00 85. 65. 975. 68. 975. 70. 970. 80.
1984-11-13 00:00:00 90. 70. 970. 68. 968. 75. 970. 90.
1984-11-13 06:00:00 90. 70. 970. 78. 965. 80. 965. 90.
1984-11-13 12:00:00 95. 75. 965. 78. 965. 90. 960. 95.
1984-11-13 18:00:00 100. 80. 950. 87. 950. 100. 945. 95.
1984-11-14 00:00:00 110. 90. 930. 97. 930. 110. 930. 110.
jtwc_wp tokyo cma hko td9636
1984-11-14 06:00:00 120. 95. 920. 97. 920. 115. 920. 110.
1984-11-14 12:00:00 125. 100. 910. 107. 912. 120. 910. 125.
1984-11-14 18:00:00 130. 100. 910. 117. 910. 120. 910. 125.
1984-11-15 00:00:00 130. 100. 910. 107. 920. 115. 920. 130.
1984-11-15 06:00:00 130. 100. 930. 97. 930. 110. 930. 130.
1984-11-15 12:00:00 125. 90. 940. 97. 935. 100. 940. 125.
1984-11-15 18:00:00 125. 100. 940. 97. 935. 100. 935. 125.
1984-11-16 00:00:00 120. 100. 940. 97. 940. 100. 940. 120.
1984-11-16 06:00:00 120. 100. 940. 97. 945. 95. 945. 120.
1984-11-16 12:00:00 115. 100. 950. 97. 950. 90. 950. 115.
1984-11-16 18:00:00 110. 100. 950. 97. 950. 90. 950. 115.
1984-11-17 00:00:00 100. 100. 950. 97. 950. 95. 950. 100.
1984-11-17 06:00:00 90. 100. 935. 107. 935. 100. 935. 100.
1984-11-17 12:00:00 90. 100. 935. 107. 935. 100. 940. 90.
1984-11-17 18:00:00 80. 100. 945. 97. 940. 95. 945. 90.
1984-11-18 00:00:00 80. 80. 955. 87. 952. 85. 955. 80.
1984-11-18 06:00:00 70. 70. 960. 78. 960. 75. 960. 80.
1984-11-18 12:00:00 65. 70. 960. 78. 960. 70. 970. 65.
1984-11-18 18:00:00 60. 65. 970. 68. 980. 65. 980. 65.
1984-11-19 00:00:00 55. 50. 985. 49. 985. 50. 990. 55.
1984-11-19 06:00:00 50. 45. 990. 49. 990. 30. 993. 55.
1984-11-19 12:00:00 50. 996. 29. 995. 25. 997. 50.
1984-11-19 18:00:00 45. 1000. 23. 1000. 25. 998. 50.
1984-11-20 00:00:00 45. 1000. 23. 1000. 40. 1000. 45.
jtwc_wp tokyo cma hko td9636
1984-11-20 06:00:00 40. 1000. 23. 1000. 40. 1000. 45.
1984-11-20 12:00:00 40. 40. 1000. 29. 1000. 40. 1001. 40.
1984-11-20 18:00:00 30. 45. 1000. 39. 998. 40. 1002. 40.
1984-11-21 00:00:00 30. 45. 998. 39. 998. 35. 1002. 30.
1984-11-21 06:00:00 30. 45. 998. 39. 998. 35. 1002. 30.
1984-11-21 12:00:00 25. 45. 998. 39. 998. 30. 1002. 25.
1984-11-21 18:00:00 25. 40. 998. 39. 998. 25. 1002. 25.
1984-11-22 00:00:00 25. 40. 998. 29. 1000. 25. 1002. 25.
1984-11-22 06:00:00 1002. 19. 1004.
1984-11-22 12:00:00 1002. 19. 1004.
1984-11-22 18:00:00 1004.
1984-11-23 00:00:00 1006.
1984-11-23 06:00:00 1006.

top of page Links to source data

Source Source file Format
jtwc_wp bwp281984.txt ATCF
tokyo bst_all.txt:Line=33320:BILL:8425 JMA text table
cma CH1984BST.txt:Storm=31:Bill CMA text table
hko tc-besttrack-data.txt:Line=16829:BILL HKO Text table
td9636 cons_worldwide_trop_cyclone_18710101-19891231-003:Line=29402 TD 9636